createdAt,value
2022-07-29T00:00:01.278Z,100399.69
2022-07-29T00:02:29.172Z,100399.69
2022-07-29T00:04:56.496Z,100400.97
2022-07-29T00:07:23.793Z,100394.41
2022-07-29T00:09:52.650Z,100401.66
2022-07-29T00:12:21.357Z,100409.13
2022-07-29T00:14:53.880Z,100409.78
2022-07-29T00:17:22.806Z,100409.44
2022-07-29T00:19:50.067Z,100408.69
2022-07-29T00:22:17.553Z,100408.97
2022-07-29T00:24:44.775Z,100413.34
2022-07-29T00:27:12.030Z,100406.91
2022-07-29T00:29:39.563Z,100400.41
2022-07-29T00:32:07.449Z,100400.56
2022-07-29T00:34:36.076Z,100400.88
2022-07-29T00:37:03.684Z,100401.63
2022-07-29T00:39:30.916Z,100393.69
2022-07-29T00:41:58.165Z,100395.34
2022-07-29T00:44:25.728Z,100399.28
2022-07-29T00:46:53.352Z,100402.34
2022-07-29T00:49:20.794Z,100398.69
2022-07-29T00:51:51.048Z,100408.19
2022-07-29T00:54:19.044Z,100403.53
2022-07-29T00:56:46.558Z,100409.56
2022-07-29T00:59:14.091Z,100399.78
2022-07-29T01:01:41.456Z,100400.09
2022-07-29T01:04:08.754Z,100402.22
2022-07-29T01:06:36.632Z,100406.13
2022-07-29T01:09:05.685Z,100397.72
2022-07-29T01:11:33.841Z,100399.34
2022-07-29T01:14:02.298Z,100397.31
2022-07-29T01:16:34.193Z,100387.72
2022-07-29T01:19:06.255Z,100380.69
2022-07-29T01:21:49.717Z,100392.03
2022-07-29T01:24:35.048Z,100389.03
2022-07-29T01:27:20.459Z,100382.06
2022-07-29T01:29:52.273Z,100381.41
2022-07-29T01:32:28.670Z,100379.38
2022-07-29T01:35:02.154Z,100383.63
2022-07-29T01:37:33.287Z,100380.91
2022-07-29T01:40:04.626Z,100383.19
2022-07-29T01:42:37.797Z,100380.16
2022-07-29T01:45:13.475Z,100382.84
2022-07-29T01:47:45.877Z,100379.38
2022-07-29T01:50:17.289Z,100371.28
2022-07-29T01:52:48.011Z,100372.03
2022-07-29T01:55:18.708Z,100370.00
2022-07-29T01:57:48.795Z,100363.59
2022-07-29T02:00:18.753Z,100359.22
2022-07-29T02:02:48.897Z,100353.97
2022-07-29T02:05:18.968Z,100362.44
2022-07-29T02:07:47.920Z,100356.75
2022-07-29T02:10:18.445Z,100353.94
2022-07-29T02:12:50.854Z,100351.94
2022-07-29T02:15:20.548Z,100350.34
2022-07-29T02:17:52.452Z,100341.97
2022-07-29T02:20:20.373Z,100338.31
2022-07-29T02:22:48.656Z,100335.09
2022-07-29T02:25:17.166Z,100339.44
2022-07-29T02:27:47.773Z,100341.44
2022-07-29T02:30:15.462Z,100345.31
2022-07-29T02:32:47.014Z,100341.31
2022-07-29T02:35:15.956Z,100343.44
2022-07-29T02:37:45.728Z,100346.16
2022-07-29T02:40:16.434Z,100348.19
2022-07-29T02:42:46.028Z,100343.16
2022-07-29T02:45:13.288Z,100353.16
2022-07-29T02:47:48.037Z,100357.53
2022-07-29T02:50:18.686Z,100355.78
2022-07-29T02:52:51.601Z,100359.03
2022-07-29T02:55:26.090Z,100351.97
2022-07-29T02:57:59.334Z,100351.28
2022-07-29T03:00:29.447Z,100351.00
2022-07-29T03:03:00.575Z,100350.28
2022-07-29T03:05:28.743Z,100346.81
2022-07-29T03:07:59.687Z,100345.56
2022-07-29T03:10:27.582Z,100351.56
2022-07-29T03:12:56.766Z,100344.50
2022-07-29T03:15:24.765Z,100343.66
2022-07-29T03:17:53.465Z,100352.28
2022-07-29T03:20:22.724Z,100357.13
2022-07-29T03:22:50.068Z,100356.09
2022-07-29T03:25:19.241Z,100356.84
2022-07-29T03:27:47.825Z,100348.41
2022-07-29T03:30:21.911Z,100357.22
2022-07-29T03:32:52.196Z,100360.72
2022-07-29T03:35:19.894Z,100359.59
2022-07-29T03:37:48.672Z,100368.81
2022-07-29T03:40:22.859Z,100363.47
2022-07-29T03:42:52.682Z,100362.97
2022-07-29T03:45:21.616Z,100365.41
2022-07-29T03:48:00.924Z,100368.34
2022-07-29T03:50:31.710Z,100363.72
2022-07-29T03:53:01.778Z,100365.16
2022-07-29T03:55:33.305Z,100365.53
2022-07-29T03:58:04.000Z,100363.28
2022-07-29T04:00:32.047Z,100370.81
2022-07-29T04:02:59.575Z,100363.66
2022-07-29T04:05:27.088Z,100365.88
2022-07-29T04:07:54.385Z,100360.13
2022-07-29T04:10:23.393Z,100367.22
2022-07-29T04:12:58.451Z,100360.91
2022-07-29T04:15:25.728Z,100363.00
2022-07-29T04:17:52.928Z,100365.97
2022-07-29T04:20:20.605Z,100359.31
2022-07-29T04:22:47.889Z,100353.97
2022-07-29T04:25:15.257Z,100365.47
2022-07-29T04:27:44.226Z,100365.50
2022-07-29T04:30:11.936Z,100356.44
2022-07-29T04:32:39.142Z,100355.31
2022-07-29T04:35:07.182Z,100357.25
2022-07-29T04:37:34.362Z,100356.38
2022-07-29T04:40:01.566Z,100361.44
2022-07-29T04:42:29.437Z,100352.50
2022-07-29T04:44:58.371Z,100352.56
2022-07-29T04:47:28.584Z,100346.56
2022-07-29T04:49:56.093Z,100353.28
2022-07-29T04:52:23.342Z,100354.34
2022-07-29T04:54:50.505Z,100356.41
2022-07-29T04:57:18.002Z,100362.41
2022-07-29T04:59:45.230Z,100363.63
2022-07-29T05:02:13.882Z,100366.41
2022-07-29T05:04:41.428Z,100366.63
2022-07-29T05:07:08.721Z,100366.41
2022-07-29T05:09:35.853Z,100362.44
2022-07-29T05:12:03.488Z,100360.56
2022-07-29T05:14:30.680Z,100363.44
2022-07-29T05:16:57.830Z,100368.44
2022-07-29T05:19:26.757Z,100368.28
2022-07-29T05:21:53.976Z,100365.81
2022-07-29T05:24:21.200Z,100362.28
2022-07-29T05:26:48.711Z,100356.84
2022-07-29T05:29:44.106Z,100358.94
2022-07-29T05:32:03.913Z,100358.31
2022-07-29T05:34:32.750Z,100361.25
2022-07-29T05:36:59.915Z,100363.56
2022-07-29T05:39:48.467Z,100363.53
2022-07-29T05:42:14.682Z,100367.28
2022-07-29T05:44:42.247Z,100369.59
2022-07-29T05:47:09.445Z,100363.31
2022-07-29T05:49:38.143Z,100368.91
2022-07-29T05:52:06.046Z,100361.31
2022-07-29T05:54:33.406Z,100362.75
2022-07-29T05:57:00.596Z,100368.91
2022-07-29T05:59:30.435Z,100369.56
2022-07-29T06:01:58.105Z,100368.69
2022-07-29T06:04:25.702Z,100366.72
2022-07-29T06:06:54.780Z,100369.13
2022-07-29T06:09:21.895Z,100370.50
2022-07-29T06:11:49.177Z,100366.56
2022-07-29T06:14:17.004Z,100356.63
2022-07-29T06:16:44.496Z,100364.63
2022-07-29T06:19:11.891Z,100362.75
2022-07-29T06:21:42.896Z,100357.88
2022-07-29T06:24:12.047Z,100361.25
2022-07-29T06:26:40.001Z,100365.41
2022-07-29T06:29:07.955Z,100367.31
2022-07-29T06:31:35.550Z,100368.22
2022-07-29T06:34:03.456Z,100375.63
2022-07-29T06:36:31.547Z,100383.47
2022-07-29T06:38:58.862Z,100381.94
2022-07-29T06:41:27.878Z,100384.97
2022-07-29T06:43:56.885Z,100376.13
2022-07-29T06:46:24.499Z,100378.00
2022-07-29T06:48:53.542Z,100380.94
2022-07-29T06:51:23.519Z,100374.22
2022-07-29T06:53:58.346Z,100373.00
2022-07-29T06:56:30.997Z,100382.56
2022-07-29T06:58:58.295Z,100375.34
2022-07-29T07:01:25.706Z,100365.63
2022-07-29T07:03:53.266Z,100374.75
2022-07-29T07:06:20.547Z,100376.22
2022-07-29T07:08:47.781Z,100367.84
2022-07-29T07:11:15.260Z,100373.75
2022-07-29T07:13:43.878Z,100369.94
2022-07-29T07:16:11.123Z,100366.97
2022-07-29T07:18:38.683Z,100359.94
2022-07-29T07:21:05.887Z,100367.06
2022-07-29T07:23:33.177Z,100370.16
2022-07-29T07:26:00.851Z,100364.47
2022-07-29T07:28:28.044Z,100368.97
2022-07-29T07:30:56.641Z,100363.25
2022-07-29T07:33:24.258Z,100360.66
2022-07-29T07:35:51.558Z,100355.53
2022-07-29T07:38:18.870Z,100354.59
2022-07-29T07:40:46.498Z,100356.13
2022-07-29T07:43:13.798Z,100353.63
2022-07-29T07:45:41.318Z,100358.38
2022-07-29T07:48:10.308Z,100360.75
2022-07-29T07:50:37.792Z,100357.88
2022-07-29T07:53:05.118Z,100354.75
2022-07-29T07:56:00.038Z,100349.78
2022-07-29T07:58:19.966Z,100359.44
2022-07-29T08:00:47.861Z,100359.44
2022-07-29T08:03:16.935Z,100347.28
2022-07-29T08:05:44.663Z,100347.94
2022-07-29T08:08:12.252Z,100357.59
2022-07-29T08:10:39.489Z,100356.00
2022-07-29T08:13:07.781Z,100362.16
2022-07-29T08:15:35.776Z,100354.34
2022-07-29T08:18:08.497Z,100365.63
2022-07-29T08:20:38.989Z,100362.91
2022-07-29T08:23:08.807Z,100360.34
2022-07-29T08:25:37.691Z,100358.88
2022-07-29T08:30:35.636Z,100357.38
2022-07-29T08:33:02.965Z,100356.81
2022-07-29T08:35:35.024Z,100359.66
2022-07-29T08:38:04.322Z,100359.94
2022-07-29T08:40:32.823Z,100356.78
2022-07-29T08:43:05.048Z,100355.41
2022-07-29T08:45:44.801Z,100349.91
2022-07-29T08:48:17.267Z,100353.97
2022-07-29T08:50:46.283Z,100348.09
2022-07-29T08:53:17.223Z,100347.75
2022-07-29T08:55:47.419Z,100337.63
2022-07-29T08:58:16.275Z,100344.41
2022-07-29T09:00:46.458Z,100348.75
2022-07-29T09:03:19.669Z,100343.38
2022-07-29T09:05:48.487Z,100344.78
2022-07-29T09:08:18.279Z,100341.56
2022-07-29T09:10:46.164Z,100344.47
2022-07-29T09:13:13.442Z,100345.88
2022-07-29T09:15:40.835Z,100341.41
2022-07-29T09:18:20.494Z,100337.56
2022-07-29T09:20:56.021Z,100334.94
2022-07-29T09:23:25.499Z,100336.44
2022-07-29T09:25:52.806Z,100337.63
2022-07-29T09:28:20.099Z,100339.41
2022-07-29T09:30:55.957Z,100334.59
2022-07-29T09:33:24.462Z,100331.72
2022-07-29T09:36:00.853Z,100332.56
2022-07-29T09:38:30.906Z,100324.13
2022-07-29T09:41:05.573Z,100325.34
2022-07-29T09:43:34.745Z,100323.56
2022-07-29T09:46:12.336Z,100323.34
2022-07-29T09:48:40.281Z,100321.16
2022-07-29T09:51:21.391Z,100319.53
2022-07-29T09:53:53.045Z,100312.94
2022-07-29T09:56:21.128Z,100309.34
2022-07-29T09:58:48.498Z,100302.22
2022-07-29T10:01:16.024Z,100317.69
2022-07-29T10:03:52.820Z,100304.16
2022-07-29T10:06:20.166Z,100311.28
2022-07-29T10:08:47.922Z,100304.94
2022-07-29T10:11:18.487Z,100304.66
2022-07-29T10:13:47.765Z,100301.38
2022-07-29T10:16:16.761Z,100306.59
2022-07-29T10:18:45.196Z,100309.38
2022-07-29T10:21:35.326Z,100310.19
2022-07-29T10:24:01.614Z,100296.00
2022-07-29T10:26:31.385Z,100304.84
2022-07-29T10:28:58.670Z,100293.84
2022-07-29T10:31:35.289Z,100293.59
2022-07-29T10:34:11.781Z,100289.78
2022-07-29T10:36:50.899Z,100295.31
2022-07-29T10:39:41.809Z,100291.69
2022-07-29T10:42:29.530Z,100289.22
2022-07-29T10:45:02.851Z,100283.19
2022-07-29T10:47:32.724Z,100281.50
2022-07-29T10:50:04.843Z,100280.94
2022-07-29T10:52:56.232Z,100282.03
2022-07-29T10:55:37.827Z,100274.38
2022-07-29T10:58:19.043Z,100268.81
2022-07-29T11:00:47.909Z,100269.09
2022-07-29T11:03:49.686Z,100277.13
2022-07-29T11:06:26.269Z,100277.94
2022-07-29T11:09:20.178Z,100271.28
2022-07-29T11:11:53.111Z,100280.94
2022-07-29T11:14:56.781Z,100275.88
2022-07-29T11:17:25.381Z,100279.25
2022-07-29T11:19:53.053Z,100274.59
2022-07-29T11:22:34.460Z,100268.53
2022-07-29T11:25:42.799Z,100276.25
2022-07-29T11:28:14.214Z,100276.56
2022-07-29T11:30:52.024Z,100274.34
2022-07-29T11:33:54.405Z,100284.81
2022-07-29T11:36:19.082Z,100285.91
2022-07-29T11:39:26.471Z,100282.31
2022-07-29T11:42:37.020Z,100279.28
2022-07-29T11:45:43.336Z,100278.19
2022-07-29T11:48:27.891Z,100271.81
2022-07-29T11:50:48.877Z,100275.63
2022-07-29T11:53:17.282Z,100274.25
2022-07-29T11:55:51.083Z,100273.50
2022-07-29T11:58:22.921Z,100275.41
2022-07-29T12:00:53.053Z,100278.16
2022-07-29T12:03:33.397Z,100275.38
2022-07-29T12:06:04.637Z,100268.09
2022-07-29T12:08:42.208Z,100272.47
2022-07-29T12:11:17.264Z,100265.06
2022-07-29T12:13:44.861Z,100262.84
2022-07-29T12:16:14.588Z,100257.38
2022-07-29T12:18:43.639Z,100257.31
2022-07-29T12:21:12.588Z,100254.06
2022-07-29T12:23:52.944Z,100253.91
2022-07-29T12:26:25.612Z,100257.38
2022-07-29T12:28:53.298Z,100253.13
2022-07-29T12:31:42.039Z,100244.66
2022-07-29T12:34:11.975Z,100237.47
2022-07-29T12:36:39.526Z,100235.75
2022-07-29T12:39:06.984Z,100232.28
2022-07-29T12:41:34.676Z,100240.56
2022-07-29T12:44:02.408Z,100237.28
2022-07-29T12:46:29.676Z,100231.06
2022-07-29T12:48:57.368Z,100223.00
2022-07-29T12:51:31.907Z,100222.25
2022-07-29T12:54:10.894Z,100225.38
2022-07-29T12:56:43.283Z,100219.31
2022-07-29T12:59:17.654Z,100222.59
2022-07-29T13:01:45.629Z,100225.44
2022-07-29T13:04:25.504Z,100217.97
2022-07-29T13:07:01.767Z,100221.06
2022-07-29T13:09:39.953Z,100214.72
2022-07-29T13:12:08.336Z,100219.72
2022-07-29T13:14:37.764Z,100217.50
2022-07-29T13:17:07.145Z,100214.72
2022-07-29T13:19:37.084Z,100211.59
2022-07-29T13:22:06.337Z,100208.91
2022-07-29T13:24:33.757Z,100204.81
2022-07-29T13:27:01.053Z,100208.50
2022-07-29T13:29:33.066Z,100195.56
2022-07-29T13:32:00.623Z,100197.78
2022-07-29T13:34:28.210Z,100196.69
2022-07-29T13:36:55.642Z,100201.09
2022-07-29T13:39:24.319Z,100202.94
2022-07-29T13:41:52.345Z,100203.91
2022-07-29T13:44:19.990Z,100197.94
2022-07-29T13:46:47.446Z,100187.06
2022-07-29T13:49:14.792Z,100195.53
2022-07-29T13:51:42.384Z,100203.56
2022-07-29T13:54:09.761Z,100189.78
2022-07-29T13:56:38.392Z,100192.56
2022-07-29T13:59:05.936Z,100186.38
2022-07-29T14:01:48.305Z,100180.78
2022-07-29T14:04:15.828Z,100177.38
2022-07-29T14:13:57.235Z,100188.88
2022-07-29T14:16:24.616Z,100179.50
2022-07-29T14:18:51.922Z,100171.69
2022-07-29T14:21:19.468Z,100180.78
2022-07-29T14:23:46.825Z,100184.63
2022-07-29T14:26:15.925Z,100177.13
2022-07-29T14:28:49.181Z,100175.19
2022-07-29T14:31:18.029Z,100181.53
2022-07-29T14:33:46.280Z,100173.91
2022-07-29T14:36:17.054Z,100179.13
2022-07-29T14:38:44.307Z,100179.84
2022-07-29T14:41:11.585Z,100168.53
2022-07-29T14:43:39.176Z,100172.47
2022-07-29T14:46:08.501Z,100176.13
2022-07-29T14:48:37.420Z,100171.97
2022-07-29T14:51:05.269Z,100169.47
2022-07-29T14:53:33.051Z,100164.47
2022-07-29T14:56:15.040Z,100160.97
2022-07-29T14:58:51.937Z,100165.63
2022-07-29T15:01:19.458Z,100158.72
2022-07-29T15:03:48.280Z,100162.28
2022-07-29T15:06:15.904Z,100155.97
2022-07-29T15:08:43.334Z,100159.81
2022-07-29T15:11:10.570Z,100157.56
2022-07-29T15:13:38.153Z,100148.09
2022-07-29T15:16:06.528Z,100150.84
2022-07-29T15:18:36.006Z,100140.00
2022-07-29T15:21:05.256Z,100140.75
2022-07-29T15:23:32.523Z,100146.72
2022-07-29T15:25:59.804Z,100144.50
2022-07-29T15:28:27.382Z,100142.56
2022-07-29T15:30:54.733Z,100146.16
2022-07-29T15:33:21.972Z,100140.34
2022-07-29T15:35:49.576Z,100146.19
2022-07-29T15:38:18.599Z,100146.19
2022-07-29T15:40:45.869Z,100143.41
2022-07-29T15:43:13.812Z,100133.94
2022-07-29T15:45:43.381Z,100147.31
2022-07-29T15:48:13.279Z,100140.28
2022-07-29T15:50:42.593Z,100143.88
2022-07-29T15:53:15.001Z,100146.81
2022-07-29T15:55:44.558Z,100134.41
2022-07-29T15:58:12.391Z,100131.84
2022-07-29T16:00:39.687Z,100130.84
2022-07-29T16:03:06.990Z,100132.72
2022-07-29T16:05:34.774Z,100130.94
2022-07-29T16:08:02.095Z,100121.53
2022-07-29T16:10:29.404Z,100114.50
2022-07-29T16:12:58.332Z,100119.91
2022-07-29T16:15:25.760Z,100123.28
2022-07-29T16:17:52.981Z,100124.75
2022-07-29T16:20:20.945Z,100127.81
2022-07-29T16:22:49.457Z,100119.59
2022-07-29T16:25:16.871Z,100130.97
2022-07-29T16:27:45.877Z,100126.84
2022-07-29T16:30:14.741Z,100120.78
2022-07-29T16:32:42.051Z,100117.19
2022-07-29T16:35:10.863Z,100118.00
2022-07-29T16:37:38.174Z,100117.97
2022-07-29T16:40:11.703Z,100121.28
2022-07-29T16:42:47.478Z,100116.59
2022-07-29T16:45:17.448Z,100115.78
2022-07-29T16:47:45.762Z,100109.19
2022-07-29T16:50:13.073Z,100112.75
2022-07-29T16:52:41.007Z,100108.03
2022-07-29T16:55:09.207Z,100119.63
2022-07-29T16:57:36.429Z,100116.38
2022-07-29T17:00:05.387Z,100113.06
2022-07-29T17:02:35.875Z,100121.31
2022-07-29T17:05:12.882Z,100118.25
2022-07-29T17:07:40.949Z,100112.50
2022-07-29T17:10:10.142Z,100111.09
2022-07-29T17:12:39.702Z,100114.09
2022-07-29T17:15:09.931Z,100112.69
2022-07-29T17:17:56.716Z,100109.66
2022-07-29T17:20:25.077Z,100116.53
2022-07-29T17:22:52.319Z,100123.16
2022-07-29T17:25:21.123Z,100113.22
2022-07-29T17:27:49.918Z,100119.56
2022-07-29T17:30:17.869Z,100115.13
2022-07-29T17:32:46.658Z,100110.53
2022-07-29T17:35:14.566Z,100113.59
2022-07-29T17:37:41.897Z,100114.41
2022-07-29T17:40:10.128Z,100118.53
2022-07-29T17:42:37.637Z,100121.03
2022-07-29T17:45:05.676Z,100124.59
2022-07-29T17:47:33.176Z,100124.59
2022-07-29T17:50:02.285Z,100133.41
2022-07-29T17:52:29.599Z,100130.06
2022-07-29T17:54:57.144Z,100131.63
2022-07-29T17:57:24.803Z,100139.25
2022-07-29T17:59:52.037Z,100136.47
2022-07-29T18:02:19.423Z,100135.06
2022-07-29T18:04:50.693Z,100137.31
2022-07-29T18:07:19.465Z,100134.81
2022-07-29T18:12:28.738Z,100133.75
2022-07-29T18:14:56.026Z,100126.50
2022-07-29T18:17:23.293Z,100130.00
2022-07-29T18:20:11.550Z,100136.94
2022-07-29T18:22:40.376Z,100139.78
2022-07-29T18:25:08.594Z,100139.59
2022-07-29T18:27:36.124Z,100142.00
2022-07-29T18:30:04.789Z,100130.44
2022-07-29T18:32:32.487Z,100128.72
2022-07-29T18:35:00.061Z,100120.28
2022-07-29T18:38:02.226Z,100127.69
2022-07-29T18:40:16.267Z,100116.88
2022-07-29T18:42:43.469Z,100134.69
2022-07-29T18:45:19.079Z,100124.38
2022-07-29T18:47:47.531Z,100127.56
2022-07-29T18:50:16.211Z,100135.78
2022-07-29T18:52:43.456Z,100139.44
2022-07-29T18:55:11.005Z,100132.72
2022-07-29T18:57:55.456Z,100133.16
2022-07-29T19:00:25.570Z,100130.09
2022-07-29T19:02:53.389Z,100132.84
2022-07-29T19:05:20.857Z,100132.91
2022-07-29T19:07:48.970Z,100131.25
2022-07-29T19:10:16.319Z,100131.19
2022-07-29T19:12:44.981Z,100141.31
2022-07-29T19:15:12.491Z,100143.06
2022-07-29T19:17:47.717Z,100138.78
2022-07-29T19:20:15.841Z,100138.91
2022-07-29T19:22:43.217Z,100142.84
2022-07-29T19:25:10.541Z,100141.56
2022-07-29T19:27:38.076Z,100147.38
2022-07-29T19:30:08.349Z,100132.69
2022-07-29T19:32:36.306Z,100135.91
2022-07-29T19:35:04.984Z,100138.72
2022-07-29T19:37:32.262Z,100139.09
2022-07-29T19:39:59.540Z,100130.88
2022-07-29T19:42:27.216Z,100127.66
2022-07-29T19:44:54.453Z,100116.56
2022-07-29T19:47:23.086Z,100122.75
2022-07-29T19:49:50.610Z,100123.59
2022-07-29T19:52:20.131Z,100128.16
2022-07-29T19:54:47.329Z,100131.75
2022-07-29T19:57:14.946Z,100132.56
2022-07-29T19:59:42.402Z,100144.28
2022-07-29T20:02:11.580Z,100139.53
2022-07-29T20:04:40.725Z,100135.81
2022-07-29T20:07:09.724Z,100126.47
2022-07-29T20:09:37.124Z,100122.03
2022-07-29T20:12:05.440Z,100120.19
2022-07-29T20:14:32.679Z,100117.03
2022-07-29T20:17:00.271Z,100118.31
2022-07-29T20:19:28.005Z,100124.94
2022-07-29T20:21:56.602Z,100125.97
2022-07-29T20:24:23.841Z,100125.59
2022-07-29T20:26:51.435Z,100144.31
2022-07-29T20:29:18.850Z,100140.22
2022-07-29T20:31:46.215Z,100139.69
2022-07-29T20:34:21.007Z,100154.47
2022-07-29T20:36:48.386Z,100159.94
2022-07-29T20:39:17.499Z,100170.47
2022-07-29T20:41:45.062Z,100162.72
2022-07-29T20:44:12.386Z,100172.25
2022-07-29T20:46:39.756Z,100169.00
2022-07-29T20:49:07.500Z,100168.53
2022-07-29T20:51:43.684Z,100160.13
2022-07-29T20:54:11.809Z,100158.69
2022-07-29T20:56:40.616Z,100154.28
2022-07-29T20:59:07.882Z,100151.44
2022-07-29T21:01:35.725Z,100149.38
2022-07-29T21:04:03.243Z,100146.59
2022-07-29T21:06:30.699Z,100149.91
2022-07-29T21:08:58.256Z,100138.63
2022-07-29T21:11:43.612Z,100131.44
2022-07-29T21:14:14.232Z,100139.13
2022-07-29T21:16:41.434Z,100136.25
2022-07-29T21:19:08.693Z,100133.16
2022-07-29T21:21:36.332Z,100132.63
2022-07-29T21:24:04.307Z,100129.38
2022-07-29T21:26:31.806Z,100126.03
2022-07-29T21:28:59.419Z,100124.06
2022-07-29T21:31:28.092Z,100125.50
2022-07-29T21:33:55.263Z,100122.16
2022-07-29T21:36:47.345Z,100113.84
2022-07-29T21:39:10.061Z,100124.56
2022-07-29T21:41:37.642Z,100135.41
2022-07-29T21:44:04.947Z,100130.47
2022-07-29T21:46:33.839Z,100134.00
2022-07-29T21:49:01.481Z,100136.41
2022-07-29T21:51:28.839Z,100132.88
2022-07-29T21:53:56.131Z,100126.22
2022-07-29T21:56:23.634Z,100133.63
2022-07-29T21:58:55.276Z,100133.75
2022-07-29T22:01:22.645Z,100130.06
2022-07-29T22:03:51.810Z,100117.97
2022-07-29T22:06:19.239Z,100119.78
2022-07-29T22:08:46.546Z,100122.97
2022-07-29T22:11:14.694Z,100128.06
2022-07-29T22:13:42.080Z,100127.13
2022-07-29T22:16:09.271Z,100122.06
2022-07-29T22:18:36.855Z,100117.00
2022-07-29T22:21:05.517Z,100110.56
2022-07-29T22:23:32.816Z,100105.59
2022-07-29T22:26:00.423Z,100107.50
2022-07-29T22:28:27.767Z,100105.84
2022-07-29T22:30:55.032Z,100113.25
2022-07-29T22:33:23.456Z,100119.91
2022-07-29T22:35:50.704Z,100109.34
2022-07-29T22:38:19.680Z,100111.34
2022-07-29T22:40:47.688Z,100105.38
2022-07-29T22:43:16.040Z,100093.19
2022-07-29T22:45:43.456Z,100098.41
2022-07-29T22:48:11.133Z,100100.31
2022-07-29T22:50:38.948Z,100092.81
2022-07-29T22:53:06.191Z,100089.50
2022-07-29T22:55:35.525Z,100089.38
2022-07-29T22:58:02.993Z,100084.41
2022-07-29T23:00:30.243Z,100085.25
2022-07-29T23:02:57.915Z,100082.69
2022-07-29T23:05:25.175Z,100079.13
2022-07-29T23:07:52.629Z,100073.19
2022-07-29T23:10:20.197Z,100071.41
2022-07-29T23:12:48.915Z,100066.75
2022-07-29T23:15:16.238Z,100059.41
2022-07-29T23:17:45.873Z,100054.09
2022-07-29T23:20:14.907Z,100062.38
2022-07-29T23:22:42.450Z,100055.84
2022-07-29T23:25:10.355Z,100058.22
2022-07-29T23:27:37.661Z,100052.66
2022-07-29T23:30:07.506Z,100048.81
2022-07-29T23:32:35.042Z,100049.03
2022-07-29T23:35:02.338Z,100046.22
2022-07-29T23:37:29.553Z,100050.00
2022-07-29T23:39:57.165Z,100047.59
2022-07-29T23:42:24.532Z,100046.66
2022-07-29T23:44:52.336Z,100044.78
2022-07-29T23:47:22.111Z,100042.75
2022-07-29T23:49:49.621Z,100042.44
2022-07-29T23:52:17.172Z,100049.91
2022-07-29T23:54:44.682Z,100048.53
2022-07-29T23:57:12.020Z,100051.38
2022-07-29T23:59:39.181Z,100043.81
